sensor_id;sensor_type;location;lat;lon;timestamp;P1;durP1;ratioP1;P2;durP2;ratioP2
19509;SDS011;9896;42.486;26.506;2022-07-23T00:00:09;8.80;;;3.47;;
19509;SDS011;9896;42.486;26.506;2022-07-23T00:02:35;6.27;;;3.00;;
19509;SDS011;9896;42.486;26.506;2022-07-23T00:05:00;8.03;;;2.93;;
19509;SDS011;9896;42.486;26.506;2022-07-23T00:07:26;4.83;;;3.27;;
19509;SDS011;9896;42.486;26.506;2022-07-23T00:09:52;6.23;;;3.00;;
19509;SDS011;9896;42.486;26.506;2022-07-23T00:12:17;6.87;;;3.53;;
19509;SDS011;9896;42.486;26.506;2022-07-23T00:14:43;7.70;;;3.23;;
19509;SDS011;9896;42.486;26.506;2022-07-23T00:17:09;7.33;;;2.80;;
19509;SDS011;9896;42.486;26.506;2022-07-23T00:19:34;6.87;;;3.30;;
19509;SDS011;9896;42.486;26.506;2022-07-23T00:22:00;9.33;;;4.20;;
19509;SDS011;9896;42.486;26.506;2022-07-23T00:24:25;9.33;;;2.93;;
19509;SDS011;9896;42.486;26.506;2022-07-23T00:26:51;6.07;;;3.33;;
19509;SDS011;9896;42.486;26.506;2022-07-23T00:29:16;7.33;;;3.17;;
19509;SDS011;9896;42.486;26.506;2022-07-23T00:31:42;5.47;;;3.30;;
19509;SDS011;9896;42.486;26.506;2022-07-23T00:34:07;6.53;;;3.60;;
19509;SDS011;9896;42.486;26.506;2022-07-23T00:36:33;4.23;;;3.30;;
19509;SDS011;9896;42.486;26.506;2022-07-23T00:38:58;12.03;;;3.43;;
19509;SDS011;9896;42.486;26.506;2022-07-23T00:41:24;5.93;;;3.30;;
19509;SDS011;9896;42.486;26.506;2022-07-23T00:43:49;10.53;;;3.80;;
19509;SDS011;9896;42.486;26.506;2022-07-23T00:46:19;5.10;;;3.30;;
19509;SDS011;9896;42.486;26.506;2022-07-23T00:48:48;9.33;;;3.23;;
19509;SDS011;9896;42.486;26.506;2022-07-23T00:51:17;7.60;;;3.57;;
19509;SDS011;9896;42.486;26.506;2022-07-23T00:53:43;5.17;;;3.80;;
19509;SDS011;9896;42.486;26.506;2022-07-23T00:56:10;7.93;;;3.67;;
19509;SDS011;9896;42.486;26.506;2022-07-23T00:58:35;11.90;;;3.33;;
19509;SDS011;9896;42.486;26.506;2022-07-23T01:01:04;7.47;;;3.50;;
19509;SDS011;9896;42.486;26.506;2022-07-23T01:03:29;7.80;;;3.50;;
19509;SDS011;9896;42.486;26.506;2022-07-23T01:05:55;6.13;;;3.50;;
19509;SDS011;9896;42.486;26.506;2022-07-23T01:08:21;8.47;;;3.60;;
19509;SDS011;9896;42.486;26.506;2022-07-23T01:10:47;9.50;;;3.37;;
19509;SDS011;9896;42.486;26.506;2022-07-23T01:13:14;8.20;;;3.33;;
19509;SDS011;9896;42.486;26.506;2022-07-23T01:15:39;9.70;;;3.57;;
19509;SDS011;9896;42.486;26.506;2022-07-23T01:18:05;8.00;;;3.70;;
19509;SDS011;9896;42.486;26.506;2022-07-23T01:20:32;10.07;;;3.67;;
19509;SDS011;9896;42.486;26.506;2022-07-23T01:22:58;7.87;;;3.30;;
19509;SDS011;9896;42.486;26.506;2022-07-23T01:25:24;5.77;;;3.67;;
19509;SDS011;9896;42.486;26.506;2022-07-23T01:27:53;10.27;;;3.50;;
19509;SDS011;9896;42.486;26.506;2022-07-23T01:30:19;8.80;;;3.83;;
19509;SDS011;9896;42.486;26.506;2022-07-23T01:32:45;9.00;;;4.10;;
19509;SDS011;9896;42.486;26.506;2022-07-23T01:35:11;5.00;;;3.33;;
19509;SDS011;9896;42.486;26.506;2022-07-23T01:37:37;6.33;;;3.70;;
19509;SDS011;9896;42.486;26.506;2022-07-23T01:40:03;6.17;;;3.40;;
19509;SDS011;9896;42.486;26.506;2022-07-23T01:42:30;7.20;;;3.47;;
19509;SDS011;9896;42.486;26.506;2022-07-23T01:44:55;6.27;;;3.20;;
19509;SDS011;9896;42.486;26.506;2022-07-23T01:47:21;6.83;;;3.77;;
19509;SDS011;9896;42.486;26.506;2022-07-23T01:49:46;7.10;;;4.10;;
19509;SDS011;9896;42.486;26.506;2022-07-23T01:52:12;11.30;;;4.00;;
19509;SDS011;9896;42.486;26.506;2022-07-23T01:54:38;7.77;;;3.63;;
19509;SDS011;9896;42.486;26.506;2022-07-23T01:57:04;14.40;;;3.90;;
19509;SDS011;9896;42.486;26.506;2022-07-23T01:59:30;8.37;;;3.97;;
19509;SDS011;9896;42.486;26.506;2022-07-23T02:01:56;8.90;;;3.77;;
19509;SDS011;9896;42.486;26.506;2022-07-23T02:04:22;5.47;;;3.03;;
19509;SDS011;9896;42.486;26.506;2022-07-23T02:06:50;8.87;;;3.90;;
19509;SDS011;9896;42.486;26.506;2022-07-23T02:09:17;5.73;;;3.30;;
19509;SDS011;9896;42.486;26.506;2022-07-23T02:11:43;8.87;;;3.33;;
19509;SDS011;9896;42.486;26.506;2022-07-23T02:14:09;6.70;;;3.70;;
19509;SDS011;9896;42.486;26.506;2022-07-23T02:16:34;6.63;;;3.90;;
19509;SDS011;9896;42.486;26.506;2022-07-23T02:19:00;6.73;;;3.40;;
19509;SDS011;9896;42.486;26.506;2022-07-23T02:21:25;8.33;;;3.53;;
19509;SDS011;9896;42.486;26.506;2022-07-23T02:23:51;4.77;;;3.30;;
19509;SDS011;9896;42.486;26.506;2022-07-23T02:26:16;5.77;;;3.40;;
19509;SDS011;9896;42.486;26.506;2022-07-23T02:28:42;7.47;;;3.70;;
19509;SDS011;9896;42.486;26.506;2022-07-23T02:31:07;11.30;;;3.90;;
19509;SDS011;9896;42.486;26.506;2022-07-23T02:33:33;5.70;;;3.43;;
19509;SDS011;9896;42.486;26.506;2022-07-23T02:35:59;9.07;;;3.90;;
19509;SDS011;9896;42.486;26.506;2022-07-23T02:38:24;4.87;;;3.50;;
19509;SDS011;9896;42.486;26.506;2022-07-23T02:40:50;8.20;;;3.77;;
19509;SDS011;9896;42.486;26.506;2022-07-23T02:43:15;8.80;;;3.70;;
19509;SDS011;9896;42.486;26.506;2022-07-23T02:45:41;6.63;;;3.87;;
19509;SDS011;9896;42.486;26.506;2022-07-23T02:48:06;7.07;;;3.37;;
19509;SDS011;9896;42.486;26.506;2022-07-23T02:50:32;8.23;;;4.00;;
19509;SDS011;9896;42.486;26.506;2022-07-23T02:52:57;4.93;;;3.50;;
19509;SDS011;9896;42.486;26.506;2022-07-23T02:55:23;15.13;;;7.13;;
19509;SDS011;9896;42.486;26.506;2022-07-23T02:57:48;46.80;;;16.20;;
19509;SDS011;9896;42.486;26.506;2022-07-23T03:00:14;74.83;;;25.43;;
19509;SDS011;9896;42.486;26.506;2022-07-23T03:02:40;142.13;;;43.97;;
19509;SDS011;9896;42.486;26.506;2022-07-23T03:05:05;79.60;;;26.50;;
19509;SDS011;9896;42.486;26.506;2022-07-23T03:07:31;28.13;;;11.77;;
19509;SDS011;9896;42.486;26.506;2022-07-23T03:09:57;22.47;;;8.93;;
19509;SDS011;9896;42.486;26.506;2022-07-23T03:12:22;19.57;;;8.40;;
19509;SDS011;9896;42.486;26.506;2022-07-23T03:14:48;18.10;;;7.00;;
19509;SDS011;9896;42.486;26.506;2022-07-23T03:17:13;14.20;;;6.17;;
19509;SDS011;9896;42.486;26.506;2022-07-23T03:19:39;12.57;;;5.10;;
19509;SDS011;9896;42.486;26.506;2022-07-23T03:22:05;11.27;;;5.30;;
19509;SDS011;9896;42.486;26.506;2022-07-23T03:24:31;9.20;;;5.10;;
19509;SDS011;9896;42.486;26.506;2022-07-23T03:27:14;16.93;;;4.40;;
19509;SDS011;9896;42.486;26.506;2022-07-23T03:29:40;7.83;;;4.40;;
19509;SDS011;9896;42.486;26.506;2022-07-23T03:32:06;10.07;;;4.83;;
19509;SDS011;9896;42.486;26.506;2022-07-23T03:34:31;13.77;;;4.97;;
19509;SDS011;9896;42.486;26.506;2022-07-23T03:36:57;5.97;;;5.03;;
19509;SDS011;9896;42.486;26.506;2022-07-23T03:39:22;11.13;;;4.60;;
19509;SDS011;9896;42.486;26.506;2022-07-23T03:41:48;8.17;;;4.90;;
19509;SDS011;9896;42.486;26.506;2022-07-23T03:44:13;7.50;;;4.97;;
19509;SDS011;9896;42.486;26.506;2022-07-23T03:46:39;8.33;;;5.10;;
19509;SDS011;9896;42.486;26.506;2022-07-23T03:49:04;11.43;;;5.00;;
19509;SDS011;9896;42.486;26.506;2022-07-23T03:51:30;9.67;;;5.00;;
19509;SDS011;9896;42.486;26.506;2022-07-23T03:53:55;6.03;;;4.27;;
19509;SDS011;9896;42.486;26.506;2022-07-23T03:56:21;8.47;;;4.30;;
19509;SDS011;9896;42.486;26.506;2022-07-23T03:58:47;9.43;;;5.27;;
19509;SDS011;9896;42.486;26.506;2022-07-23T04:01:12;8.27;;;4.43;;
19509;SDS011;9896;42.486;26.506;2022-07-23T04:03:38;9.87;;;5.10;;
19509;SDS011;9896;42.486;26.506;2022-07-23T04:06:04;8.80;;;5.03;;
19509;SDS011;9896;42.486;26.506;2022-07-23T04:08:31;9.47;;;5.27;;
19509;SDS011;9896;42.486;26.506;2022-07-23T04:10:56;11.10;;;5.67;;
19509;SDS011;9896;42.486;26.506;2022-07-23T04:13:22;13.17;;;4.73;;
19509;SDS011;9896;42.486;26.506;2022-07-23T04:15:47;9.70;;;4.80;;
19509;SDS011;9896;42.486;26.506;2022-07-23T04:18:13;8.00;;;4.47;;
19509;SDS011;9896;42.486;26.506;2022-07-23T04:20:42;5.77;;;4.30;;
19509;SDS011;9896;42.486;26.506;2022-07-23T04:23:08;6.07;;;4.10;;
19509;SDS011;9896;42.486;26.506;2022-07-23T04:25:34;10.53;;;4.73;;
19509;SDS011;9896;42.486;26.506;2022-07-23T04:28:01;9.70;;;4.80;;
19509;SDS011;9896;42.486;26.506;2022-07-23T04:30:26;7.60;;;4.63;;
19509;SDS011;9896;42.486;26.506;2022-07-23T04:32:52;14.07;;;4.70;;
19509;SDS011;9896;42.486;26.506;2022-07-23T04:35:18;11.87;;;5.03;;
19509;SDS011;9896;42.486;26.506;2022-07-23T04:37:43;12.10;;;4.90;;
19509;SDS011;9896;42.486;26.506;2022-07-23T04:40:09;12.13;;;5.07;;
19509;SDS011;9896;42.486;26.506;2022-07-23T04:42:35;9.80;;;4.73;;
19509;SDS011;9896;42.486;26.506;2022-07-23T04:45:01;10.90;;;6.47;;
19509;SDS011;9896;42.486;26.506;2022-07-23T04:47:28;9.63;;;5.70;;
19509;SDS011;9896;42.486;26.506;2022-07-23T04:49:54;11.50;;;4.70;;
19509;SDS011;9896;42.486;26.506;2022-07-23T04:52:20;11.20;;;4.80;;
19509;SDS011;9896;42.486;26.506;2022-07-23T04:54:45;9.00;;;4.73;;
19509;SDS011;9896;42.486;26.506;2022-07-23T04:57:10;9.20;;;4.73;;
19509;SDS011;9896;42.486;26.506;2022-07-23T04:59:36;13.83;;;5.10;;
19509;SDS011;9896;42.486;26.506;2022-07-23T05:02:01;8.70;;;4.70;;
19509;SDS011;9896;42.486;26.506;2022-07-23T05:04:27;12.73;;;4.40;;
19509;SDS011;9896;42.486;26.506;2022-07-23T05:06:53;12.03;;;4.47;;
19509;SDS011;9896;42.486;26.506;2022-07-23T05:09:18;10.00;;;4.80;;
19509;SDS011;9896;42.486;26.506;2022-07-23T05:11:43;5.83;;;4.33;;
19509;SDS011;9896;42.486;26.506;2022-07-23T05:14:09;5.87;;;4.37;;
19509;SDS011;9896;42.486;26.506;2022-07-23T05:16:37;16.07;;;4.90;;
19509;SDS011;9896;42.486;26.506;2022-07-23T05:19:03;9.90;;;4.77;;
19509;SDS011;9896;42.486;26.506;2022-07-23T05:21:28;6.90;;;4.73;;
19509;SDS011;9896;42.486;26.506;2022-07-23T05:23:54;9.37;;;4.60;;
19509;SDS011;9896;42.486;26.506;2022-07-23T05:26:19;11.83;;;4.80;;
19509;SDS011;9896;42.486;26.506;2022-07-23T05:28:45;15.30;;;4.40;;
19509;SDS011;9896;42.486;26.506;2022-07-23T05:31:10;7.30;;;4.63;;
19509;SDS011;9896;42.486;26.506;2022-07-23T05:33:37;13.67;;;4.87;;
19509;SDS011;9896;42.486;26.506;2022-07-23T05:36:03;10.57;;;4.80;;
19509;SDS011;9896;42.486;26.506;2022-07-23T05:38:29;8.17;;;4.60;;
19509;SDS011;9896;42.486;26.506;2022-07-23T05:40:55;9.93;;;4.67;;
19509;SDS011;9896;42.486;26.506;2022-07-23T05:43:21;10.37;;;4.70;;
19509;SDS011;9896;42.486;26.506;2022-07-23T05:45:46;9.70;;;5.10;;
19509;SDS011;9896;42.486;26.506;2022-07-23T05:48:12;10.57;;;4.93;;
19509;SDS011;9896;42.486;26.506;2022-07-23T05:50:37;12.57;;;4.93;;
19509;SDS011;9896;42.486;26.506;2022-07-23T05:53:03;10.07;;;4.40;;
19509;SDS011;9896;42.486;26.506;2022-07-23T05:55:29;10.40;;;4.83;;
19509;SDS011;9896;42.486;26.506;2022-07-23T05:57:57;7.57;;;4.10;;
19509;SDS011;9896;42.486;26.506;2022-07-23T06:00:23;9.20;;;4.17;;
19509;SDS011;9896;42.486;26.506;2022-07-23T06:02:50;6.83;;;4.47;;
19509;SDS011;9896;42.486;26.506;2022-07-23T06:05:16;8.57;;;4.47;;
19509;SDS011;9896;42.486;26.506;2022-07-23T06:07:41;7.67;;;4.50;;
19509;SDS011;9896;42.486;26.506;2022-07-23T06:10:07;6.60;;;4.13;;
19509;SDS011;9896;42.486;26.506;2022-07-23T06:12:34;11.10;;;4.43;;
19509;SDS011;9896;42.486;26.506;2022-07-23T06:15:00;8.67;;;4.27;;
19509;SDS011;9896;42.486;26.506;2022-07-23T06:17:26;8.23;;;4.50;;
19509;SDS011;9896;42.486;26.506;2022-07-23T06:19:54;9.77;;;4.70;;
19509;SDS011;9896;42.486;26.506;2022-07-23T06:22:21;15.30;;;5.07;;
19509;SDS011;9896;42.486;26.506;2022-07-23T06:24:47;12.23;;;8.93;;
19509;SDS011;9896;42.486;26.506;2022-07-23T06:27:12;9.73;;;5.10;;
19509;SDS011;9896;42.486;26.506;2022-07-23T06:29:38;14.90;;;5.25;;
19509;SDS011;9896;42.486;26.506;2022-07-23T06:32:05;10.40;;;5.93;;
19509;SDS011;9896;42.486;26.506;2022-07-23T06:34:31;9.20;;;6.00;;
19509;SDS011;9896;42.486;26.506;2022-07-23T06:36:57;9.95;;;5.05;;
19509;SDS011;9896;42.486;26.506;2022-07-23T06:39:23;12.10;;;5.32;;
19509;SDS011;9896;42.486;26.506;2022-07-23T06:41:48;8.10;;;6.07;;
19509;SDS011;9896;42.486;26.506;2022-07-23T06:44:14;10.00;;;6.00;;
19509;SDS011;9896;42.486;26.506;2022-07-23T06:46:39;17.35;;;6.35;;
19509;SDS011;9896;42.486;26.506;2022-07-23T06:49:05;12.38;;;6.18;;
19509;SDS011;9896;42.486;26.506;2022-07-23T06:51:30;11.38;;;5.55;;
19509;SDS011;9896;42.486;26.506;2022-07-23T06:53:56;11.43;;;6.07;;
19509;SDS011;9896;42.486;26.506;2022-07-23T06:56:21;11.77;;;6.13;;
19509;SDS011;9896;42.486;26.506;2022-07-23T06:58:47;9.40;;;6.75;;
19509;SDS011;9896;42.486;26.506;2022-07-23T07:01:12;10.30;;;6.03;;
19509;SDS011;9896;42.486;26.506;2022-07-23T07:03:38;10.90;;;6.30;;
19509;SDS011;9896;42.486;26.506;2022-07-23T07:06:04;11.43;;;6.80;;
19509;SDS011;9896;42.486;26.506;2022-07-23T07:08:29;13.68;;;6.97;;
19509;SDS011;9896;42.486;26.506;2022-07-23T07:10:55;9.73;;;6.38;;
19509;SDS011;9896;42.486;26.506;2022-07-23T07:13:20;13.65;;;6.18;;
19509;SDS011;9896;42.486;26.506;2022-07-23T07:15:46;15.60;;;6.68;;
19509;SDS011;9896;42.486;26.506;2022-07-23T07:18:11;14.43;;;6.50;;
19509;SDS011;9896;42.486;26.506;2022-07-23T07:20:37;12.68;;;5.40;;
19509;SDS011;9896;42.486;26.506;2022-07-23T07:23:02;13.45;;;6.55;;
19509;SDS011;9896;42.486;26.506;2022-07-23T07:25:28;8.90;;;4.90;;
19509;SDS011;9896;42.486;26.506;2022-07-23T07:27:53;11.57;;;5.78;;
19509;SDS011;9896;42.486;26.506;2022-07-23T07:30:19;8.85;;;4.95;;
19509;SDS011;9896;42.486;26.506;2022-07-23T07:32:44;9.88;;;5.85;;
19509;SDS011;9896;42.486;26.506;2022-07-23T07:35:10;11.30;;;5.57;;
19509;SDS011;9896;42.486;26.506;2022-07-23T07:37:36;8.52;;;5.30;;
19509;SDS011;9896;42.486;26.506;2022-07-23T07:40:02;10.15;;;5.63;;
19509;SDS011;9896;42.486;26.506;2022-07-23T07:42:28;12.23;;;5.05;;
19509;SDS011;9896;42.486;26.506;2022-07-23T07:44:53;11.50;;;5.10;;
19509;SDS011;9896;42.486;26.506;2022-07-23T07:47:19;9.02;;;4.88;;
19509;SDS011;9896;42.486;26.506;2022-07-23T07:49:45;6.15;;;4.78;;
19509;SDS011;9896;42.486;26.506;2022-07-23T07:52:10;13.23;;;5.22;;
19509;SDS011;9896;42.486;26.506;2022-07-23T07:54:36;11.27;;;4.72;;
19509;SDS011;9896;42.486;26.506;2022-07-23T07:57:02;7.95;;;4.70;;
19509;SDS011;9896;42.486;26.506;2022-07-23T07:59:27;10.63;;;4.78;;
19509;SDS011;9896;42.486;26.506;2022-07-23T08:01:53;7.80;;;4.65;;
19509;SDS011;9896;42.486;26.506;2022-07-23T08:04:18;7.80;;;4.10;;
19509;SDS011;9896;42.486;26.506;2022-07-23T08:06:44;8.65;;;4.93;;
19509;SDS011;9896;42.486;26.506;2022-07-23T08:09:09;6.85;;;4.70;;
19509;SDS011;9896;42.486;26.506;2022-07-23T08:11:35;10.07;;;4.70;;
19509;SDS011;9896;42.486;26.506;2022-07-23T08:14:01;7.53;;;4.65;;
19509;SDS011;9896;42.486;26.506;2022-07-23T08:16:26;12.00;;;5.05;;
19509;SDS011;9896;42.486;26.506;2022-07-23T08:18:52;16.30;;;4.82;;
19509;SDS011;9896;42.486;26.506;2022-07-23T08:21:17;7.72;;;4.72;;
19509;SDS011;9896;42.486;26.506;2022-07-23T08:23:43;9.02;;;4.45;;
19509;SDS011;9896;42.486;26.506;2022-07-23T08:26:08;9.68;;;4.60;;
19509;SDS011;9896;42.486;26.506;2022-07-23T08:28:34;10.55;;;4.88;;
19509;SDS011;9896;42.486;26.506;2022-07-23T08:30:59;12.90;;;5.18;;
19509;SDS011;9896;42.486;26.506;2022-07-23T08:33:25;11.32;;;5.38;;
19509;SDS011;9896;42.486;26.506;2022-07-23T08:35:51;12.50;;;4.90;;
19509;SDS011;9896;42.486;26.506;2022-07-23T08:38:18;7.38;;;4.15;;
19509;SDS011;9896;42.486;26.506;2022-07-23T08:40:49;9.10;;;4.53;;
19509;SDS011;9896;42.486;26.506;2022-07-23T08:43:23;11.20;;;4.53;;
19509;SDS011;9896;42.486;26.506;2022-07-23T08:45:51;14.00;;;4.60;;
19509;SDS011;9896;42.486;26.506;2022-07-23T08:48:19;18.90;;;9.00;;
19509;SDS011;9896;42.486;26.506;2022-07-23T08:50:46;11.18;;;5.55;;
19509;SDS011;9896;42.486;26.506;2022-07-23T08:53:16;11.82;;;4.28;;
19509;SDS011;9896;42.486;26.506;2022-07-23T08:55:43;7.80;;;3.97;;
19509;SDS011;9896;42.486;26.506;2022-07-23T08:58:13;12.27;;;4.63;;
19509;SDS011;9896;42.486;26.506;2022-07-23T09:00:38;10.15;;;4.15;;
19509;SDS011;9896;42.486;26.506;2022-07-23T09:03:04;14.57;;;5.57;;
19509;SDS011;9896;42.486;26.506;2022-07-23T09:05:30;12.23;;;3.63;;
19509;SDS011;9896;42.486;26.506;2022-07-23T09:08:05;9.75;;;3.53;;
19509;SDS011;9896;42.486;26.506;2022-07-23T09:18:32;6.75;;;3.40;;
19509;SDS011;9896;42.486;26.506;2022-07-23T09:21:09;6.60;;;3.20;;
19509;SDS011;9896;42.486;26.506;2022-07-23T09:28:57;8.43;;;3.67;;
19509;SDS011;9896;42.486;26.506;2022-07-23T09:31:23;6.50;;;3.50;;
19509;SDS011;9896;42.486;26.506;2022-07-23T09:33:50;10.68;;;3.67;;
19509;SDS011;9896;42.486;26.506;2022-07-23T09:36:22;5.30;;;3.78;;
19509;SDS011;9896;42.486;26.506;2022-07-23T09:38:53;11.23;;;3.83;;
19509;SDS011;9896;42.486;26.506;2022-07-23T09:41:19;14.35;;;3.88;;
19509;SDS011;9896;42.486;26.506;2022-07-23T09:43:44;7.03;;;3.60;;
19509;SDS011;9896;42.486;26.506;2022-07-23T09:46:16;10.00;;;3.67;;
19509;SDS011;9896;42.486;26.506;2022-07-23T09:48:43;6.65;;;3.28;;
19509;SDS011;9896;42.486;26.506;2022-07-23T09:51:09;11.45;;;4.18;;
19509;SDS011;9896;42.486;26.506;2022-07-23T09:53:35;11.50;;;4.40;;
19509;SDS011;9896;42.486;26.506;2022-07-23T09:56:00;9.13;;;3.63;;
19509;SDS011;9896;42.486;26.506;2022-07-23T09:58:26;7.13;;;3.20;;
19509;SDS011;9896;42.486;26.506;2022-07-23T10:00:52;10.80;;;3.60;;
19509;SDS011;9896;42.486;26.506;2022-07-23T10:03:19;10.05;;;3.20;;
19509;SDS011;9896;42.486;26.506;2022-07-23T10:05:45;8.48;;;3.40;;
19509;SDS011;9896;42.486;26.506;2022-07-23T10:08:12;6.57;;;3.47;;
19509;SDS011;9896;42.486;26.506;2022-07-23T10:10:40;6.75;;;2.92;;
19509;SDS011;9896;42.486;26.506;2022-07-23T10:13:06;11.80;;;3.55;;
19509;SDS011;9896;42.486;26.506;2022-07-23T10:15:51;8.50;;;3.35;;
19509;SDS011;9896;42.486;26.506;2022-07-23T10:18:17;7.10;;;3.15;;
19509;SDS011;9896;42.486;26.506;2022-07-23T10:20:42;4.38;;;3.30;;
19509;SDS011;9896;42.486;26.506;2022-07-23T10:23:16;8.30;;;4.18;;
19509;SDS011;9896;42.486;26.506;2022-07-23T10:26:11;7.95;;;3.70;;
19509;SDS011;9896;42.486;26.506;2022-07-23T10:34:24;7.75;;;3.15;;
19509;SDS011;9896;42.486;26.506;2022-07-23T10:37:01;9.10;;;3.40;;
19509;SDS011;9896;42.486;26.506;2022-07-23T10:40:12;9.23;;;3.53;;
19509;SDS011;9896;42.486;26.506;2022-07-23T10:42:38;8.32;;;3.47;;
19509;SDS011;9896;42.486;26.506;2022-07-23T10:47:49;6.80;;;3.30;;
19509;SDS011;9896;42.486;26.506;2022-07-23T10:50:28;9.20;;;3.17;;
19509;SDS011;9896;42.486;26.506;2022-07-23T10:57:57;7.53;;;3.10;;
19509;SDS011;9896;42.486;26.506;2022-07-23T11:00:27;11.30;;;3.50;;
19509;SDS011;9896;42.486;26.506;2022-07-23T11:02:58;7.57;;;3.28;;
19509;SDS011;9896;42.486;26.506;2022-07-23T11:05:26;6.03;;;3.40;;
19509;SDS011;9896;42.486;26.506;2022-07-23T11:08:11;7.07;;;3.33;;
19509;SDS011;9896;42.486;26.506;2022-07-23T11:10:43;7.38;;;3.80;;
19509;SDS011;9896;42.486;26.506;2022-07-23T11:13:45;6.43;;;3.08;;
19509;SDS011;9896;42.486;26.506;2022-07-23T11:16:21;6.38;;;3.00;;
19509;SDS011;9896;42.486;26.506;2022-07-23T11:24:08;5.70;;;2.85;;
19509;SDS011;9896;42.486;26.506;2022-07-23T11:32:00;10.82;;;3.20;;
19509;SDS011;9896;42.486;26.506;2022-07-23T11:36:59;6.88;;;3.33;;
19509;SDS011;9896;42.486;26.506;2022-07-23T11:39:26;5.32;;;2.90;;
19509;SDS011;9896;42.486;26.506;2022-07-23T11:41:53;7.45;;;3.25;;
19509;SDS011;9896;42.486;26.506;2022-07-23T11:44:26;9.10;;;3.60;;
19509;SDS011;9896;42.486;26.506;2022-07-23T11:47:00;5.57;;;3.05;;
19509;SDS011;9896;42.486;26.506;2022-07-23T11:49:28;7.75;;;3.28;;
19509;SDS011;9896;42.486;26.506;2022-07-23T11:57:29;6.85;;;3.30;;
19509;SDS011;9896;42.486;26.506;2022-07-23T12:02:41;11.20;;;3.20;;
19509;SDS011;9896;42.486;26.506;2022-07-23T12:05:16;7.07;;;3.20;;
19509;SDS011;9896;42.486;26.506;2022-07-23T12:07:47;6.72;;;3.08;;
19509;SDS011;9896;42.486;26.506;2022-07-23T12:12:50;9.38;;;3.38;;
19509;SDS011;9896;42.486;26.506;2022-07-23T12:15:19;7.88;;;3.67;;
19509;SDS011;9896;42.486;26.506;2022-07-23T12:17:47;6.75;;;3.30;;
19509;SDS011;9896;42.486;26.506;2022-07-23T12:20:15;5.22;;;3.40;;
19509;SDS011;9896;42.486;26.506;2022-07-23T12:22:45;7.40;;;3.60;;
19509;SDS011;9896;42.486;26.506;2022-07-23T12:25:23;8.57;;;3.15;;
19509;SDS011;9896;42.486;26.506;2022-07-23T12:28:01;7.63;;;3.65;;
19509;SDS011;9896;42.486;26.506;2022-07-23T12:33:28;7.18;;;3.35;;
19509;SDS011;9896;42.486;26.506;2022-07-23T12:35:55;10.05;;;3.85;;
19509;SDS011;9896;42.486;26.506;2022-07-23T12:38:23;6.65;;;3.05;;
19509;SDS011;9896;42.486;26.506;2022-07-23T12:40:56;7.25;;;3.47;;
19509;SDS011;9896;42.486;26.506;2022-07-23T12:43:36;8.18;;;3.15;;
19509;SDS011;9896;42.486;26.506;2022-07-23T12:46:06;7.95;;;3.50;;
19509;SDS011;9896;42.486;26.506;2022-07-23T12:53:48;6.57;;;3.35;;
19509;SDS011;9896;42.486;26.506;2022-07-23T12:56:26;9.65;;;3.70;;
19509;SDS011;9896;42.486;26.506;2022-07-23T13:03:55;6.10;;;3.40;;
19509;SDS011;9896;42.486;26.506;2022-07-23T13:06:31;11.68;;;3.90;;
19509;SDS011;9896;42.486;26.506;2022-07-23T13:08:58;10.93;;;4.75;;
19509;SDS011;9896;42.486;26.506;2022-07-23T13:11:24;9.90;;;3.63;;
19509;SDS011;9896;42.486;26.506;2022-07-23T13:13:50;14.30;;;3.88;;
19509;SDS011;9896;42.486;26.506;2022-07-23T13:16:15;7.22;;;3.47;;
19509;SDS011;9896;42.486;26.506;2022-07-23T13:18:41;6.40;;;3.80;;
19509;SDS011;9896;42.486;26.506;2022-07-23T13:21:07;11.50;;;3.63;;
19509;SDS011;9896;42.486;26.506;2022-07-23T13:23:33;10.00;;;3.30;;
19509;SDS011;9896;42.486;26.506;2022-07-23T13:25:59;7.55;;;3.40;;
19509;SDS011;9896;42.486;26.506;2022-07-23T13:28:24;9.60;;;3.00;;
19509;SDS011;9896;42.486;26.506;2022-07-23T13:30:50;9.30;;;3.47;;
19509;SDS011;9896;42.486;26.506;2022-07-23T13:33:17;6.68;;;3.38;;
19509;SDS011;9896;42.486;26.506;2022-07-23T13:35:47;9.60;;;3.40;;
19509;SDS011;9896;42.486;26.506;2022-07-23T13:38:13;9.48;;;3.15;;
19509;SDS011;9896;42.486;26.506;2022-07-23T13:40:40;6.03;;;3.42;;
19509;SDS011;9896;42.486;26.506;2022-07-23T13:43:08;9.65;;;3.85;;
19509;SDS011;9896;42.486;26.506;2022-07-23T13:45:35;8.43;;;3.50;;
19509;SDS011;9896;42.486;26.506;2022-07-23T13:48:01;10.63;;;3.63;;
19509;SDS011;9896;42.486;26.506;2022-07-23T13:50:27;9.82;;;4.13;;
19509;SDS011;9896;42.486;26.506;2022-07-23T13:52:53;8.43;;;4.00;;
19509;SDS011;9896;42.486;26.506;2022-07-23T13:55:19;9.00;;;3.65;;
19509;SDS011;9896;42.486;26.506;2022-07-23T13:57:44;7.93;;;3.65;;
19509;SDS011;9896;42.486;26.506;2022-07-23T14:00:10;10.80;;;4.03;;
19509;SDS011;9896;42.486;26.506;2022-07-23T14:02:37;10.38;;;3.78;;
19509;SDS011;9896;42.486;26.506;2022-07-23T14:05:05;9.82;;;3.92;;
19509;SDS011;9896;42.486;26.506;2022-07-23T14:07:32;8.60;;;4.00;;
19509;SDS011;9896;42.486;26.506;2022-07-23T14:09:58;8.63;;;3.55;;
19509;SDS011;9896;42.486;26.506;2022-07-23T14:12:24;8.57;;;3.47;;
19509;SDS011;9896;42.486;26.506;2022-07-23T14:14:50;9.13;;;3.65;;
19509;SDS011;9896;42.486;26.506;2022-07-23T14:17:19;7.90;;;3.72;;
19509;SDS011;9896;42.486;26.506;2022-07-23T14:19:47;7.78;;;3.97;;
19509;SDS011;9896;42.486;26.506;2022-07-23T14:22:12;10.07;;;3.63;;
19509;SDS011;9896;42.486;26.506;2022-07-23T14:24:38;10.43;;;4.20;;
19509;SDS011;9896;42.486;26.506;2022-07-23T14:27:04;15.30;;;5.07;;
19509;SDS011;9896;42.486;26.506;2022-07-23T14:29:30;9.38;;;3.78;;
19509;SDS011;9896;42.486;26.506;2022-07-23T14:31:56;10.43;;;3.58;;
19509;SDS011;9896;42.486;26.506;2022-07-23T14:34:22;11.82;;;3.90;;
19509;SDS011;9896;42.486;26.506;2022-07-23T14:36:47;11.57;;;3.80;;
19509;SDS011;9896;42.486;26.506;2022-07-23T14:39:13;8.00;;;3.65;;
19509;SDS011;9896;42.486;26.506;2022-07-23T14:41:39;8.85;;;3.90;;
19509;SDS011;9896;42.486;26.506;2022-07-23T14:44:05;13.98;;;4.18;;
19509;SDS011;9896;42.486;26.506;2022-07-23T14:46:31;9.15;;;4.20;;
19509;SDS011;9896;42.486;26.506;2022-07-23T14:48:56;11.07;;;4.03;;
19509;SDS011;9896;42.486;26.506;2022-07-23T14:51:22;7.93;;;3.60;;
19509;SDS011;9896;42.486;26.506;2022-07-23T14:53:48;5.55;;;3.78;;
19509;SDS011;9896;42.486;26.506;2022-07-23T14:56:13;8.32;;;4.05;;
19509;SDS011;9896;42.486;26.506;2022-07-23T14:58:39;11.77;;;4.63;;
19509;SDS011;9896;42.486;26.506;2022-07-23T15:01:05;9.82;;;3.95;;
19509;SDS011;9896;42.486;26.506;2022-07-23T15:03:31;8.32;;;3.97;;
19509;SDS011;9896;42.486;26.506;2022-07-23T15:05:58;9.88;;;4.47;;
19509;SDS011;9896;42.486;26.506;2022-07-23T15:08:23;8.30;;;3.72;;
19509;SDS011;9896;42.486;26.506;2022-07-23T15:10:49;9.30;;;3.88;;
19509;SDS011;9896;42.486;26.506;2022-07-23T15:13:15;11.48;;;3.30;;
19509;SDS011;9896;42.486;26.506;2022-07-23T15:15:41;5.07;;;4.07;;
19509;SDS011;9896;42.486;26.506;2022-07-23T15:18:06;6.65;;;4.03;;
19509;SDS011;9896;42.486;26.506;2022-07-23T15:20:32;13.57;;;3.72;;
19509;SDS011;9896;42.486;26.506;2022-07-23T15:22:57;8.40;;;3.15;;
19509;SDS011;9896;42.486;26.506;2022-07-23T15:25:23;7.90;;;3.63;;
19509;SDS011;9896;42.486;26.506;2022-07-23T15:27:49;9.35;;;3.40;;
19509;SDS011;9896;42.486;26.506;2022-07-23T15:30:15;8.68;;;3.85;;
19509;SDS011;9896;42.486;26.506;2022-07-23T15:32:40;9.75;;;3.50;;
19509;SDS011;9896;42.486;26.506;2022-07-23T15:35:06;9.77;;;4.47;;
19509;SDS011;9896;42.486;26.506;2022-07-23T15:37:33;9.05;;;4.72;;
19509;SDS011;9896;42.486;26.506;2022-07-23T15:39:59;9.25;;;4.10;;
19509;SDS011;9896;42.486;26.506;2022-07-23T15:42:25;9.73;;;4.20;;
19509;SDS011;9896;42.486;26.506;2022-07-23T15:44:51;8.57;;;3.70;;